sensor_id;sensor_type;location;lat;lon;timestamp;pressure;altitude;pressure_sealevel;temperature;humidity
16120;BME280;12670;53.502;10.252;2023-01-26T00:01:08;102064.88;;;0.62;100.00
16120;BME280;12670;53.502;10.252;2023-01-26T00:04:11;102068.88;;;0.45;100.00
16120;BME280;12670;53.502;10.252;2023-01-26T00:07:15;102067.84;;;0.37;100.00
16120;BME280;12670;53.502;10.252;2023-01-26T00:10:18;102067.06;;;0.85;100.00
16120;BME280;12670;53.502;10.252;2023-01-26T00:13:21;102060.72;;;0.72;100.00
16120;BME280;12670;53.502;10.252;2023-01-26T00:16:24;102065.34;;;0.41;100.00
16120;BME280;12670;53.502;10.252;2023-01-26T00:19:27;102068.66;;;0.76;100.00
16120;BME280;12670;53.502;10.252;2023-01-26T00:22:31;102058.13;;;0.73;100.00
16120;BME280;12670;53.502;10.252;2023-01-26T00:25:36;102046.25;;;0.45;100.00
16120;BME280;12670;53.502;10.252;2023-01-26T00:28:40;102054.03;;;0.42;100.00
16120;BME280;12670;53.502;10.252;2023-01-26T00:31:42;102052.25;;;0.84;100.00
16120;BME280;12670;53.502;10.252;2023-01-26T00:34:45;102040.00;;;0.37;100.00
16120;BME280;12670;53.502;10.252;2023-01-26T00:37:49;102035.06;;;0.51;100.00
16120;BME280;12670;53.502;10.252;2023-01-26T00:40:52;102039.97;;;0.79;100.00
16120;BME280;12670;53.502;10.252;2023-01-26T00:43:54;102035.09;;;0.99;100.00
16120;BME280;12670;53.502;10.252;2023-01-26T00:46:57;102022.13;;;1.04;100.00
16120;BME280;12670;53.502;10.252;2023-01-26T00:50:00;102029.63;;;0.84;100.00
16120;BME280;12670;53.502;10.252;2023-01-26T00:53:04;102018.09;;;0.74;100.00
16120;BME280;12670;53.502;10.252;2023-01-26T00:56:07;102018.06;;;0.73;100.00
16120;BME280;12670;53.502;10.252;2023-01-26T00:59:10;102014.13;;;0.49;100.00
16120;BME280;12670;53.502;10.252;2023-01-26T01:02:12;102010.03;;;0.18;100.00
16120;BME280;12670;53.502;10.252;2023-01-26T01:05:15;102005.19;;;0.37;100.00
16120;BME280;12670;53.502;10.252;2023-01-26T01:08:19;102007.00;;;0.86;100.00
16120;BME280;12670;53.502;10.252;2023-01-26T01:11:22;102008.31;;;0.63;100.00
16120;BME280;12670;53.502;10.252;2023-01-26T01:14:24;102001.88;;;0.92;100.00
16120;BME280;12670;53.502;10.252;2023-01-26T01:17:27;102006.22;;;0.92;100.00
16120;BME280;12670;53.502;10.252;2023-01-26T01:20:30;102006.69;;;0.25;100.00
16120;BME280;12670;53.502;10.252;2023-01-26T01:23:34;102003.50;;;0.40;100.00
16120;BME280;12670;53.502;10.252;2023-01-26T01:26:37;102002.16;;;0.59;100.00
16120;BME280;12670;53.502;10.252;2023-01-26T01:29:40;101998.13;;;0.33;100.00
16120;BME280;12670;53.502;10.252;2023-01-26T01:32:43;102001.63;;;0.77;100.00
16120;BME280;12670;53.502;10.252;2023-01-26T01:35:56;102000.97;;;0.89;100.00
16120;BME280;12670;53.502;10.252;2023-01-26T01:39:00;101997.47;;;0.43;100.00
16120;BME280;12670;53.502;10.252;2023-01-26T01:42:03;102002.00;;;0.09;100.00
16120;BME280;12670;53.502;10.252;2023-01-26T01:45:35;101999.84;;;0.76;100.00
16120;BME280;12670;53.502;10.252;2023-01-26T01:48:47;102003.38;;;0.78;100.00
16120;BME280;12670;53.502;10.252;2023-01-26T01:51:55;101995.03;;;0.08;100.00
16120;BME280;12670;53.502;10.252;2023-01-26T01:55:04;101998.59;;;-0.28;100.00
16120;BME280;12670;53.502;10.252;2023-01-26T01:58:08;101988.31;;;0.19;100.00
16120;BME280;12670;53.502;10.252;2023-01-26T02:01:11;101984.84;;;0.22;100.00
16120;BME280;12670;53.502;10.252;2023-01-26T02:04:14;101979.84;;;0.31;100.00
16120;BME280;12670;53.502;10.252;2023-01-26T02:07:16;101982.25;;;0.66;100.00
16120;BME280;12670;53.502;10.252;2023-01-26T02:10:20;101979.31;;;0.97;100.00
16120;BME280;12670;53.502;10.252;2023-01-26T02:13:25;101972.66;;;1.15;100.00
16120;BME280;12670;53.502;10.252;2023-01-26T02:16:28;101970.88;;;1.12;100.00
16120;BME280;12670;53.502;10.252;2023-01-26T02:19:42;101976.69;;;0.05;100.00
16120;BME280;12670;53.502;10.252;2023-01-26T02:22:55;101976.84;;;0.57;100.00
16120;BME280;12670;53.502;10.252;2023-01-26T02:26:10;101984.81;;;0.64;100.00
16120;BME280;12670;53.502;10.252;2023-01-26T02:29:14;101980.56;;;0.69;100.00
16120;BME280;12670;53.502;10.252;2023-01-26T02:32:16;101966.38;;;0.11;100.00
16120;BME280;12670;53.502;10.252;2023-01-26T02:35:19;101973.75;;;0.31;100.00
16120;BME280;12670;53.502;10.252;2023-01-26T02:38:24;101964.97;;;0.29;100.00
16120;BME280;12670;53.502;10.252;2023-01-26T02:41:31;101962.38;;;0.75;100.00
16120;BME280;12670;53.502;10.252;2023-01-26T02:45:07;101960.06;;;0.44;100.00
16120;BME280;12670;53.502;10.252;2023-01-26T02:48:09;101941.94;;;0.06;100.00
16120;BME280;12670;53.502;10.252;2023-01-26T02:51:12;101954.72;;;0.38;100.00
16120;BME280;12670;53.502;10.252;2023-01-26T02:54:14;101949.81;;;0.53;100.00
16120;BME280;12670;53.502;10.252;2023-01-26T02:57:32;101944.84;;;0.68;100.00
16120;BME280;12670;53.502;10.252;2023-01-26T03:00:36;101941.50;;;0.75;100.00
16120;BME280;12670;53.502;10.252;2023-01-26T03:03:41;101936.34;;;0.80;100.00
16120;BME280;12670;53.502;10.252;2023-01-26T03:06:45;101938.75;;;1.21;100.00
16120;BME280;12670;53.502;10.252;2023-01-26T03:09:47;101933.69;;;0.77;100.00
16120;BME280;12670;53.502;10.252;2023-01-26T03:12:51;101937.34;;;0.87;100.00
16120;BME280;12670;53.502;10.252;2023-01-26T03:15:54;101934.59;;;0.79;100.00
16120;BME280;12670;53.502;10.252;2023-01-26T03:19:03;101935.09;;;1.08;100.00
16120;BME280;12670;53.502;10.252;2023-01-26T03:22:23;101930.03;;;0.67;100.00
16120;BME280;12670;53.502;10.252;2023-01-26T03:25:44;101931.56;;;1.06;100.00
16120;BME280;12670;53.502;10.252;2023-01-26T03:29:06;101928.13;;;1.10;100.00
16120;BME280;12670;53.502;10.252;2023-01-26T03:32:08;101932.59;;;1.16;100.00
16120;BME280;12670;53.502;10.252;2023-01-26T03:35:11;101924.81;;;1.20;100.00
16120;BME280;12670;53.502;10.252;2023-01-26T03:38:15;101933.72;;;1.31;100.00
16120;BME280;12670;53.502;10.252;2023-01-26T03:41:18;101919.84;;;1.36;100.00
16120;BME280;12670;53.502;10.252;2023-01-26T03:44:39;101923.25;;;1.33;100.00
16120;BME280;12670;53.502;10.252;2023-01-26T03:48:04;101917.56;;;0.52;100.00
16120;BME280;12670;53.502;10.252;2023-01-26T03:51:24;101924.72;;;1.14;100.00
16120;BME280;12670;53.502;10.252;2023-01-26T03:54:45;101920.75;;;1.41;100.00
16120;BME280;12670;53.502;10.252;2023-01-26T03:58:05;101925.78;;;0.72;100.00
16120;BME280;12670;53.502;10.252;2023-01-26T04:01:11;101924.56;;;0.53;100.00
16120;BME280;12670;53.502;10.252;2023-01-26T04:04:20;101923.16;;;0.72;100.00
16120;BME280;12670;53.502;10.252;2023-01-26T04:07:41;101927.50;;;1.23;100.00
16120;BME280;12670;53.502;10.252;2023-01-26T04:11:01;101927.03;;;0.46;100.00
16120;BME280;12670;53.502;10.252;2023-01-26T04:14:03;101929.78;;;1.05;100.00
16120;BME280;12670;53.502;10.252;2023-01-26T04:17:25;101922.41;;;1.34;100.00
16120;BME280;12670;53.502;10.252;2023-01-26T04:20:46;101927.47;;;0.70;100.00
16120;BME280;12670;53.502;10.252;2023-01-26T04:24:06;101920.38;;;1.16;100.00
16120;BME280;12670;53.502;10.252;2023-01-26T04:27:10;101917.88;;;0.69;100.00
16120;BME280;12670;53.502;10.252;2023-01-26T04:30:14;101921.75;;;0.93;100.00
16120;BME280;12670;53.502;10.252;2023-01-26T04:33:19;101912.66;;;1.22;100.00
16120;BME280;12670;53.502;10.252;2023-01-26T04:36:21;101913.06;;;1.50;100.00
16120;BME280;12670;53.502;10.252;2023-01-26T04:39:24;101917.13;;;1.29;100.00
16120;BME280;12670;53.502;10.252;2023-01-26T04:42:26;101901.56;;;1.40;100.00
16120;BME280;12670;53.502;10.252;2023-01-26T04:45:29;101891.03;;;1.34;100.00
16120;BME280;12670;53.502;10.252;2023-01-26T04:48:34;101897.91;;;1.27;100.00
16120;BME280;12670;53.502;10.252;2023-01-26T04:51:36;101898.41;;;1.63;100.00
16120;BME280;12670;53.502;10.252;2023-01-26T04:54:40;101908.69;;;0.93;100.00
16120;BME280;12670;53.502;10.252;2023-01-26T04:57:42;101900.31;;;1.12;100.00
16120;BME280;12670;53.502;10.252;2023-01-26T05:00:49;101891.16;;;1.42;100.00
16120;BME280;12670;53.502;10.252;2023-01-26T05:03:53;101886.06;;;1.52;100.00
16120;BME280;12670;53.502;10.252;2023-01-26T05:06:56;101888.25;;;1.22;100.00
16120;BME280;12670;53.502;10.252;2023-01-26T05:09:58;101888.47;;;0.81;100.00
16120;BME280;12670;53.502;10.252;2023-01-26T05:13:01;101885.31;;;1.00;100.00
16120;BME280;12670;53.502;10.252;2023-01-26T05:16:04;101889.88;;;1.15;100.00
16120;BME280;12670;53.502;10.252;2023-01-26T05:19:09;101884.56;;;1.09;100.00
16120;BME280;12670;53.502;10.252;2023-01-26T05:22:12;101884.91;;;1.32;100.00
16120;BME280;12670;53.502;10.252;2023-01-26T05:25:14;101887.34;;;1.20;100.00
16120;BME280;12670;53.502;10.252;2023-01-26T05:28:17;101885.47;;;1.11;100.00
16120;BME280;12670;53.502;10.252;2023-01-26T05:31:20;101883.16;;;1.32;100.00
16120;BME280;12670;53.502;10.252;2023-01-26T05:34:24;101888.84;;;1.04;100.00
16120;BME280;12670;53.502;10.252;2023-01-26T05:37:27;101878.84;;;1.34;100.00
16120;BME280;12670;53.502;10.252;2023-01-26T05:40:30;101881.66;;;1.47;100.00
16120;BME280;12670;53.502;10.252;2023-01-26T05:43:32;101891.97;;;1.39;100.00
16120;BME280;12670;53.502;10.252;2023-01-26T05:46:35;101884.28;;;1.50;100.00
16120;BME280;12670;53.502;10.252;2023-01-26T05:49:39;101884.91;;;1.33;100.00
16120;BME280;12670;53.502;10.252;2023-01-26T05:52:43;101886.03;;;1.51;100.00
16120;BME280;12670;53.502;10.252;2023-01-26T05:55:47;101888.91;;;1.09;100.00
16120;BME280;12670;53.502;10.252;2023-01-26T05:58:49;101893.84;;;1.48;100.00
16120;BME280;12670;53.502;10.252;2023-01-26T06:01:52;101886.09;;;1.54;100.00
16120;BME280;12670;53.502;10.252;2023-01-26T06:04:56;101887.84;;;1.55;100.00
16120;BME280;12670;53.502;10.252;2023-01-26T06:07:58;101892.22;;;1.56;100.00
16120;BME280;12670;53.502;10.252;2023-01-26T06:11:01;101894.13;;;1.69;100.00
16120;BME280;12670;53.502;10.252;2023-01-26T06:14:03;101892.06;;;1.44;100.00
16120;BME280;12670;53.502;10.252;2023-01-26T06:17:06;101891.41;;;1.62;100.00
16120;BME280;12670;53.502;10.252;2023-01-26T06:20:11;101900.31;;;1.12;100.00
16120;BME280;12670;53.502;10.252;2023-01-26T06:23:15;101896.06;;;1.20;100.00
16120;BME280;12670;53.502;10.252;2023-01-26T06:26:17;101894.69;;;1.45;100.00
16120;BME280;12670;53.502;10.252;2023-01-26T06:29:20;101893.97;;;1.57;100.00
16120;BME280;12670;53.502;10.252;2023-01-26T06:32:22;101900.31;;;1.74;100.00
16120;BME280;12670;53.502;10.252;2023-01-26T06:35:27;101909.63;;;1.54;100.00
16120;BME280;12670;53.502;10.252;2023-01-26T06:38:29;101904.06;;;1.29;100.00
16120;BME280;12670;53.502;10.252;2023-01-26T06:41:33;101895.78;;;1.61;100.00
16120;BME280;12670;53.502;10.252;2023-01-26T06:44:35;101907.28;;;1.75;100.00
16120;BME280;12670;53.502;10.252;2023-01-26T06:47:43;101903.63;;;1.59;100.00
16120;BME280;12670;53.502;10.252;2023-01-26T06:50:49;101899.78;;;1.36;100.00
16120;BME280;12670;53.502;10.252;2023-01-26T06:53:54;101908.44;;;1.33;100.00
16120;BME280;12670;53.502;10.252;2023-01-26T06:56:57;101917.72;;;1.12;100.00
16120;BME280;12670;53.502;10.252;2023-01-26T06:59:59;101915.22;;;1.18;100.00
16120;BME280;12670;53.502;10.252;2023-01-26T07:03:02;101907.16;;;1.65;100.00
16120;BME280;12670;53.502;10.252;2023-01-26T07:06:06;101919.09;;;1.46;100.00
16120;BME280;12670;53.502;10.252;2023-01-26T07:09:12;101917.78;;;1.16;100.00
16120;BME280;12670;53.502;10.252;2023-01-26T07:12:15;101908.25;;;1.18;100.00
16120;BME280;12670;53.502;10.252;2023-01-26T07:15:17;101909.50;;;1.45;100.00
16120;BME280;12670;53.502;10.252;2023-01-26T07:18:20;101914.78;;;1.48;100.00
16120;BME280;12670;53.502;10.252;2023-01-26T07:21:24;101910.84;;;1.18;100.00
16120;BME280;12670;53.502;10.252;2023-01-26T07:24:26;101914.94;;;1.60;100.00
16120;BME280;12670;53.502;10.252;2023-01-26T07:27:29;101909.47;;;1.43;100.00
16120;BME280;12670;53.502;10.252;2023-01-26T07:30:32;101910.19;;;1.31;100.00
16120;BME280;12670;53.502;10.252;2023-01-26T07:33:34;101915.19;;;1.78;100.00
16120;BME280;12670;53.502;10.252;2023-01-26T07:36:38;101920.53;;;1.87;100.00
16120;BME280;12670;53.502;10.252;2023-01-26T07:39:41;101913.38;;;1.73;100.00
16120;BME280;12670;53.502;10.252;2023-01-26T07:42:44;101920.34;;;1.72;100.00
16120;BME280;12670;53.502;10.252;2023-01-26T07:45:47;101918.69;;;1.80;100.00
16120;BME280;12670;53.502;10.252;2023-01-26T07:48:51;101920.66;;;1.97;100.00
16120;BME280;12670;53.502;10.252;2023-01-26T07:51:55;101919.94;;;2.08;100.00
16120;BME280;12670;53.502;10.252;2023-01-26T07:54:58;101914.81;;;2.21;100.00
16120;BME280;12670;53.502;10.252;2023-01-26T07:58:00;101923.50;;;2.15;100.00
16120;BME280;12670;53.502;10.252;2023-01-26T08:01:08;101923.28;;;1.98;100.00
16120;BME280;12670;53.502;10.252;2023-01-26T08:04:11;101929.47;;;2.05;100.00
16120;BME280;12670;53.502;10.252;2023-01-26T08:07:15;101925.00;;;1.95;100.00
16120;BME280;12670;53.502;10.252;2023-01-26T08:10:18;101925.22;;;2.11;100.00
16120;BME280;12670;53.502;10.252;2023-01-26T08:13:20;101917.81;;;1.80;100.00
16120;BME280;12670;53.502;10.252;2023-01-26T08:16:35;101924.63;;;1.66;100.00
16120;BME280;12670;53.502;10.252;2023-01-26T08:19:38;101932.41;;;1.61;100.00
16120;BME280;12670;53.502;10.252;2023-01-26T08:22:42;101936.66;;;1.53;100.00
16120;BME280;12670;53.502;10.252;2023-01-26T08:25:44;101935.72;;;1.48;100.00
16120;BME280;12670;53.502;10.252;2023-01-26T08:28:48;101921.78;;;1.52;100.00
16120;BME280;12670;53.502;10.252;2023-01-26T08:31:50;101923.06;;;1.80;100.00
16120;BME280;12670;53.502;10.252;2023-01-26T08:34:53;101923.91;;;1.77;100.00
16120;BME280;12670;53.502;10.252;2023-01-26T08:37:58;101935.28;;;1.81;100.00
16120;BME280;12670;53.502;10.252;2023-01-26T08:41:01;101940.72;;;1.95;100.00
16120;BME280;12670;53.502;10.252;2023-01-26T08:44:04;101936.06;;;1.75;100.00
16120;BME280;12670;53.502;10.252;2023-01-26T08:47:07;101933.72;;;1.95;100.00
16120;BME280;12670;53.502;10.252;2023-01-26T08:50:09;101935.44;;;1.93;100.00
16120;BME280;12670;53.502;10.252;2023-01-26T08:53:14;101937.31;;;2.05;100.00
16120;BME280;12670;53.502;10.252;2023-01-26T08:56:17;101933.94;;;2.13;100.00
16120;BME280;12670;53.502;10.252;2023-01-26T08:59:19;101930.19;;;1.93;100.00
16120;BME280;12670;53.502;10.252;2023-01-26T09:02:22;101935.72;;;2.14;100.00
16120;BME280;12670;53.502;10.252;2023-01-26T09:05:25;101940.72;;;1.98;100.00
16120;BME280;12670;53.502;10.252;2023-01-26T09:08:29;101939.38;;;1.62;100.00
16120;BME280;12670;53.502;10.252;2023-01-26T09:11:32;101928.38;;;1.86;100.00
16120;BME280;12670;53.502;10.252;2023-01-26T09:14:35;101940.88;;;2.10;100.00
16120;BME280;12670;53.502;10.252;2023-01-26T09:17:37;101943.56;;;2.16;100.00
16120;BME280;12670;53.502;10.252;2023-01-26T09:20:40;101935.69;;;2.13;100.00
16120;BME280;12670;53.502;10.252;2023-01-26T09:23:44;101936.69;;;2.24;100.00
16120;BME280;12670;53.502;10.252;2023-01-26T09:26:47;101932.72;;;1.84;100.00
16120;BME280;12670;53.502;10.252;2023-01-26T09:29:49;101933.88;;;2.06;100.00
16120;BME280;12670;53.502;10.252;2023-01-26T09:32:56;101919.63;;;1.84;100.00
16120;BME280;12670;53.502;10.252;2023-01-26T09:36:02;101930.44;;;2.11;100.00
16120;BME280;12670;53.502;10.252;2023-01-26T09:39:06;101925.00;;;1.96;100.00
16120;BME280;12670;53.502;10.252;2023-01-26T09:42:25;101928.84;;;2.24;100.00
16120;BME280;12670;53.502;10.252;2023-01-26T09:45:32;101930.53;;;2.18;100.00
16120;BME280;12670;53.502;10.252;2023-01-26T09:48:42;101935.09;;;2.35;100.00
16120;BME280;12670;53.502;10.252;2023-01-26T09:51:48;101933.44;;;2.45;100.00
16120;BME280;12670;53.502;10.252;2023-01-26T09:54:56;101933.41;;;2.44;100.00
16120;BME280;12670;53.502;10.252;2023-01-26T09:58:02;101932.34;;;2.23;100.00
16120;BME280;12670;53.502;10.252;2023-01-26T10:01:13;101926.03;;;2.09;100.00
16120;BME280;12670;53.502;10.252;2023-01-26T10:04:26;101921.00;;;2.24;100.00
16120;BME280;12670;53.502;10.252;2023-01-26T10:07:34;101926.25;;;2.27;100.00
16120;BME280;12670;53.502;10.252;2023-01-26T10:10:40;101919.19;;;2.20;100.00
16120;BME280;12670;53.502;10.252;2023-01-26T10:13:50;101911.47;;;2.32;100.00
16120;BME280;12670;53.502;10.252;2023-01-26T10:16:56;101914.00;;;2.23;100.00
16120;BME280;12670;53.502;10.252;2023-01-26T10:20:04;101898.19;;;2.16;100.00
16120;BME280;12670;53.502;10.252;2023-01-26T10:23:13;101893.31;;;2.51;100.00
16120;BME280;12670;53.502;10.252;2023-01-26T10:26:20;101894.94;;;2.38;100.00
16120;BME280;12670;53.502;10.252;2023-01-26T10:29:23;101910.53;;;2.24;100.00
16120;BME280;12670;53.502;10.252;2023-01-26T10:32:25;101908.09;;;2.41;100.00
16120;BME280;12670;53.502;10.252;2023-01-26T10:35:28;101912.22;;;2.22;100.00
16120;BME280;12670;53.502;10.252;2023-01-26T10:38:38;101907.63;;;2.00;100.00
16120;BME280;12670;53.502;10.252;2023-01-26T10:41:55;101898.28;;;2.23;100.00
16120;BME280;12670;53.502;10.252;2023-01-26T10:45:00;101893.16;;;2.34;100.00
16120;BME280;12670;53.502;10.252;2023-01-26T10:48:12;101891.13;;;2.10;100.00
16120;BME280;12670;53.502;10.252;2023-01-26T10:51:22;101893.06;;;2.28;100.00
16120;BME280;12670;53.502;10.252;2023-01-26T10:54:26;101893.94;;;2.24;100.00
16120;BME280;12670;53.502;10.252;2023-01-26T10:57:30;101894.69;;;2.12;100.00
16120;BME280;12670;53.502;10.252;2023-01-26T11:00:33;101884.41;;;2.33;100.00
16120;BME280;12670;53.502;10.252;2023-01-26T11:03:38;101884.94;;;2.00;100.00
16120;BME280;12670;53.502;10.252;2023-01-26T11:06:40;101887.16;;;2.44;100.00
16120;BME280;12670;53.502;10.252;2023-01-26T11:09:43;101882.91;;;2.57;100.00
16120;BME280;12670;53.502;10.252;2023-01-26T11:12:49;101892.47;;;2.53;100.00
16120;BME280;12670;53.502;10.252;2023-01-26T11:16:02;101897.63;;;2.43;100.00
16120;BME280;12670;53.502;10.252;2023-01-26T11:19:11;101894.13;;;2.45;100.00
16120;BME280;12670;53.502;10.252;2023-01-26T11:22:17;101905.66;;;2.61;100.00
16120;BME280;12670;53.502;10.252;2023-01-26T11:25:24;101888.19;;;2.60;100.00
16120;BME280;12670;53.502;10.252;2023-01-26T11:28:38;101891.69;;;2.62;100.00
16120;BME280;12670;53.502;10.252;2023-01-26T11:31:53;101881.78;;;2.32;100.00
16120;BME280;12670;53.502;10.252;2023-01-26T11:35:08;101891.56;;;2.51;100.00
16120;BME280;12670;53.502;10.252;2023-01-26T11:38:27;101883.06;;;2.75;100.00
16120;BME280;12670;53.502;10.252;2023-01-26T11:41:42;101869.94;;;2.72;100.00
16120;BME280;12670;53.502;10.252;2023-01-26T11:45:03;101865.66;;;2.83;100.00
16120;BME280;12670;53.502;10.252;2023-01-26T11:48:16;101870.91;;;2.83;100.00
16120;BME280;12670;53.502;10.252;2023-01-26T11:51:31;101863.94;;;2.85;100.00
16120;BME280;12670;53.502;10.252;2023-01-26T11:54:54;101856.97;;;2.87;100.00
16120;BME280;12670;53.502;10.252;2023-01-26T11:58:14;101845.72;;;3.04;100.00
16120;BME280;12670;53.502;10.252;2023-01-26T12:01:26;101851.03;;;3.16;100.00
16120;BME280;12670;53.502;10.252;2023-01-26T12:04:33;101849.25;;;3.06;100.00
16120;BME280;12670;53.502;10.252;2023-01-26T12:07:45;101841.44;;;3.18;100.00
16120;BME280;12670;53.502;10.252;2023-01-26T12:11:01;101846.53;;;2.97;100.00
16120;BME280;12670;53.502;10.252;2023-01-26T12:14:25;101848.34;;;3.04;100.00
16120;BME280;12670;53.502;10.252;2023-01-26T12:17:39;101820.47;;;3.18;100.00
16120;BME280;12670;53.502;10.252;2023-01-26T12:20:49;101818.72;;;3.18;100.00
16120;BME280;12670;53.502;10.252;2023-01-26T12:23:57;101823.03;;;3.10;100.00
16120;BME280;12670;53.502;10.252;2023-01-26T12:27:07;101821.44;;;3.37;100.00
16120;BME280;12670;53.502;10.252;2023-01-26T12:30:23;101814.44;;;3.34;100.00
16120;BME280;12670;53.502;10.252;2023-01-26T12:33:30;101812.72;;;3.41;100.00
16120;BME280;12670;53.502;10.252;2023-01-26T12:36:41;101804.84;;;3.45;100.00
16120;BME280;12670;53.502;10.252;2023-01-26T12:39:52;101812.69;;;3.38;100.00
16120;BME280;12670;53.502;10.252;2023-01-26T12:43:09;101803.00;;;3.28;100.00
16120;BME280;12670;53.502;10.252;2023-01-26T12:46:16;101801.31;;;3.31;100.00
16120;BME280;12670;53.502;10.252;2023-01-26T12:49:22;101805.75;;;3.49;100.00
16120;BME280;12670;53.502;10.252;2023-01-26T12:52:32;101795.28;;;3.57;100.00
16120;BME280;12670;53.502;10.252;2023-01-26T12:55:40;101793.56;;;3.62;100.00
16120;BME280;12670;53.502;10.252;2023-01-26T12:58:47;101791.78;;;3.55;100.00
16120;BME280;12670;53.502;10.252;2023-01-26T13:01:51;101790.97;;;3.66;100.00
16120;BME280;12670;53.502;10.252;2023-01-26T13:04:57;101790.94;;;3.68;100.00
16120;BME280;12670;53.502;10.252;2023-01-26T13:11:47;101789.22;;;3.73;100.00
16120;BME280;12670;53.502;10.252;2023-01-26T13:15:00;101794.50;;;3.85;100.00
16120;BME280;12670;53.502;10.252;2023-01-26T13:18:12;101801.47;;;3.80;100.00
16120;BME280;12670;53.502;10.252;2023-01-26T13:21:26;101799.75;;;3.79;100.00
16120;BME280;12670;53.502;10.252;2023-01-26T13:24:42;101794.50;;;3.82;100.00
16120;BME280;12670;53.502;10.252;2023-01-26T13:27:54;101798.84;;;3.80;100.00
16120;BME280;12670;53.502;10.252;2023-01-26T13:31:02;101791.88;;;3.82;100.00
16120;BME280;12670;53.502;10.252;2023-01-26T13:34:07;101799.78;;;3.94;100.00
16120;BME280;12670;53.502;10.252;2023-01-26T13:37:15;101786.66;;;3.96;100.00
16120;BME280;12670;53.502;10.252;2023-01-26T13:40:23;101790.16;;;4.03;100.00
16120;BME280;12670;53.502;10.252;2023-01-26T13:43:34;101790.94;;;3.68;100.00
16120;BME280;12670;53.502;10.252;2023-01-26T13:46:41;101789.28;;;3.88;100.00
16120;BME280;12670;53.502;10.252;2023-01-26T13:49:45;101805.03;;;3.88;100.00
16120;BME280;12670;53.502;10.252;2023-01-26T13:52:51;101801.56;;;4.00;100.00
16120;BME280;12670;53.502;10.252;2023-01-26T13:55:56;101801.44;;;3.68;100.00
16120;BME280;12670;53.502;10.252;2023-01-26T13:59:09;101805.00;;;3.82;100.00
16120;BME280;12670;53.502;10.252;2023-01-26T14:02:20;101810.28;;;3.91;100.00
16120;BME280;12670;53.502;10.252;2023-01-26T14:05:24;101818.91;;;3.57;100.00
16120;BME280;12670;53.502;10.252;2023-01-26T14:08:29;101807.47;;;3.44;100.00
16120;BME280;12670;53.502;10.252;2023-01-26T14:11:33;101820.59;;;3.44;100.00
16120;BME280;12670;53.502;10.252;2023-01-26T14:14:36;101825.88;;;3.52;100.00
16120;BME280;12670;53.502;10.252;2023-01-26T14:17:46;101822.41;;;3.63;100.00
16120;BME280;12670;53.502;10.252;2023-01-26T14:20:57;101821.59;;;3.72;100.00
16120;BME280;12670;53.502;10.252;2023-01-26T14:24:01;101829.50;;;3.81;100.00
16120;BME280;12670;53.502;10.252;2023-01-26T14:27:04;101830.41;;;3.91;100.00
16120;BME280;12670;53.502;10.252;2023-01-26T14:30:20;101840.03;;;3.90;100.00
16120;BME280;12670;53.502;10.252;2023-01-26T14:33:24;101839.09;;;3.70;100.00
16120;BME280;12670;53.502;10.252;2023-01-26T14:36:29;101845.28;;;3.89;100.00
16120;BME280;12670;53.502;10.252;2023-01-26T14:39:38;101847.94;;;3.93;100.00
16120;BME280;12670;53.502;10.252;2023-01-26T14:42:43;101845.31;;;3.93;100.00
16120;BME280;12670;53.502;10.252;2023-01-26T14:45:48;101849.63;;;3.84;100.00
16120;BME280;12670;53.502;10.252;2023-01-26T14:48:55;101846.13;;;3.82;100.00
16120;BME280;12670;53.502;10.252;2023-01-26T14:52:00;101847.97;;;4.07;100.00
16120;BME280;12670;53.502;10.252;2023-01-26T14:55:06;101847.06;;;3.93;100.00
16120;BME280;12670;53.502;10.252;2023-01-26T14:58:14;101849.63;;;3.82;100.00
16120;BME280;12670;53.502;10.252;2023-01-26T15:01:21;101842.50;;;3.55;100.00
16120;BME280;12670;53.502;10.252;2023-01-26T15:04:33;101847.91;;;3.87;100.00
16120;BME280;12670;53.502;10.252;2023-01-26T15:07:41;101853.19;;;3.99;100.00
16120;BME280;12670;53.502;10.252;2023-01-26T15:10:53;101855.63;;;3.54;100.00
16120;BME280;12670;53.502;10.252;2023-01-26T15:14:30;101859.22;;;3.71;100.00
16120;BME280;12670;53.502;10.252;2023-01-26T15:17:38;101855.47;;;3.25;100.00
16120;BME280;12670;53.502;10.252;2023-01-26T15:20:43;101853.06;;;3.64;100.00
16120;BME280;12670;53.502;10.252;2023-01-26T15:23:49;101854.88;;;3.84;100.00
16120;BME280;12670;53.502;10.252;2023-01-26T15:27:03;101868.94;;;3.93;100.00
16120;BME280;12670;53.502;10.252;2023-01-26T15:30:14;101860.09;;;3.74;100.00
16120;BME280;12670;53.502;10.252;2023-01-26T15:33:44;101865.31;;;3.65;100.00
16120;BME280;12670;53.502;10.252;2023-01-26T15:36:49;101867.94;;;3.67;100.00
16120;BME280;12670;53.502;10.252;2023-01-26T15:39:52;101865.25;;;3.56;100.00
16120;BME280;12670;53.502;10.252;2023-01-26T15:43:10;101875.66;;;3.39;100.00
16120;BME280;12670;53.502;10.252;2023-01-26T15:46:13;101869.56;;;3.43;100.00
16120;BME280;12670;53.502;10.252;2023-01-26T15:49:15;101864.44;;;3.65;100.00
16120;BME280;12670;53.502;10.252;2023-01-26T15:52:22;101864.50;;;3.82;100.00
16120;BME280;12670;53.502;10.252;2023-01-26T15:55:27;101865.28;;;3.58;100.00
16120;BME280;12670;53.502;10.252;2023-01-26T15:58:32;101860.91;;;3.63;100.00
16120;BME280;12670;53.502;10.252;2023-01-26T16:01:37;101867.97;;;3.70;100.00
16120;BME280;12670;53.502;10.252;2023-01-26T16:04:40;101861.03;;;3.87;100.00
16120;BME280;12670;53.502;10.252;2023-01-26T16:07:43;101852.31;;;4.00;100.00